N499RK LFMD-LFRS
Flight info
| Callsign | N499RK |
|---|---|
| Flight time | N/A |
| Altitude | 43000 |
| Route | CNM DCT MTL DCT LMG DCT NTS DCT NITEM |
| Aircraft | PC24/M-SBDGIRWY/LB2 |
Departure
| Time | 2026-04-22 07:19 |
|---|---|
| Airport | Cannes Mandelieu Airport (LFMD) |
Arrival
| Time | N/A |
|---|---|
| Airport | Nantes Atlantique Airport (LFRS) |
| Time | Latitude | Longitude | Altitude | Speed | Heading |
|---|---|---|---|---|---|
| 2026-04-22 06:58 | 43.54720 | 6.95356 | 13 ft | 0 kts | 173° |
| 2026-04-22 07:13 | 43.54716 | 6.95356 | 13 ft | 1 kts | 172° |
| 2026-04-22 07:14 | 43.54698 | 6.95351 | 13 ft | 4 kts | 221° |
| 2026-04-22 07:14 | 43.54692 | 6.95314 | 13 ft | 3 kts | 264° |
| 2026-04-22 07:14 | 43.54691 | 6.95298 | 13 ft | 2 kts | 275° |
| 2026-04-22 07:14 | 43.54704 | 6.95275 | 13 ft | 6 kts | 327° |
| 2026-04-22 07:15 | 43.54760 | 6.95262 | 13 ft | 11 kts | 352° |
| 2026-04-22 07:15 | 43.54856 | 6.95245 | 13 ft | 16 kts | 353° |
| 2026-04-22 07:15 | 43.54987 | 6.95222 | 13 ft | 21 kts | 353° |
| 2026-04-22 07:15 | 43.55136 | 6.95196 | 13 ft | 20 kts | 352° |
| 2026-04-22 07:16 | 43.55255 | 6.95174 | 13 ft | 15 kts | 352° |
| 2026-04-22 07:16 | 43.55341 | 6.95159 | 13 ft | 10 kts | 353° |
| 2026-04-22 07:16 | 43.55395 | 6.95150 | 13 ft | 6 kts | 351° |
| 2026-04-22 07:16 | 43.55421 | 6.95136 | 13 ft | 4 kts | 327° |
| 2026-04-22 07:17 | 43.55439 | 6.95098 | 13 ft | 5 kts | 281° |
| 2026-04-22 07:17 | 43.55436 | 6.95045 | 13 ft | 6 kts | 262° |
| 2026-04-22 07:17 | 43.55418 | 6.94987 | 13 ft | 8 kts | 212° |
| 2026-04-22 07:17 | 43.55388 | 6.94979 | 13 ft | 0 kts | 175° |
| 2026-04-22 07:18 | 43.55385 | 6.94980 | 13 ft | 8 kts | 173° |
| 2026-04-22 07:19 | 43.55059 | 6.95038 | 11 ft | 84 kts | 172° |
| 2026-04-22 07:19 | 43.54267 | 6.95201 | 26 ft | 143 kts | 169° |
| 2026-04-22 07:19 | 43.53184 | 6.95433 | 405 ft | 167 kts | 169° |
| 2026-04-22 07:19 | 43.52017 | 6.95962 | 854 ft | 188 kts | 144° |
| 2026-04-22 07:20 | 43.50854 | 6.97068 | 1179 ft | 230 kts | 146° |
| 2026-04-22 07:20 | 43.49371 | 6.98157 | 1667 ft | 247 kts | 138° |
| 2026-04-22 07:20 | 43.48218 | 6.99720 | 2190 ft | 219 kts | 128° |
| 2026-04-22 07:20 | 43.47221 | 7.01168 | 2686 ft | 201 kts | 129° |
| 2026-04-22 07:21 | 43.46264 | 7.02644 | 3215 ft | 209 kts | 126° |
| 2026-04-22 07:21 | 43.45288 | 7.04189 | 3736 ft | 219 kts | 127° |
| 2026-04-22 07:21 | 43.44277 | 7.05775 | 4266 ft | 221 kts | 128° |
| 2026-04-22 07:21 | 43.43247 | 7.07380 | 4808 ft | 223 kts | 128° |
| 2026-04-22 07:22 | 43.42206 | 7.09001 | 5323 ft | 233 kts | 130° |
| 2026-04-22 07:22 | 43.41120 | 7.10697 | 5852 ft | 238 kts | 129° |
| 2026-04-22 07:22 | 43.39995 | 7.12450 | 6387 ft | 248 kts | 131° |
| 2026-04-22 07:22 | 43.38921 | 7.14355 | 6870 ft | 260 kts | 115° |
| 2026-04-22 07:23 | 43.38622 | 7.16742 | 7375 ft | 255 kts | 84° |
| 2026-04-22 07:23 | 43.39001 | 7.19136 | 7900 ft | 253 kts | 65° |
| 2026-04-22 07:23 | 43.39763 | 7.21327 | 8434 ft | 256 kts | 59° |
| 2026-04-22 07:23 | 43.40649 | 7.23452 | 8968 ft | 247 kts | 44° |
| 2026-04-22 07:24 | 43.42014 | 7.24617 | 9475 ft | 227 kts | 7° |
| 2026-04-22 07:24 | 43.43546 | 7.24666 | 10024 ft | 217 kts | 343° |
| 2026-04-22 07:24 | 43.44903 | 7.23883 | 10536 ft | 208 kts | 322° |
| 2026-04-22 07:24 | 43.46067 | 7.22706 | 11055 ft | 209 kts | 320° |
| 2026-04-22 07:25 | 43.47247 | 7.21524 | 11577 ft | 210 kts | 321° |
| 2026-04-22 07:25 | 43.48435 | 7.20351 | 12103 ft | 210 kts | 321° |
| 2026-04-22 07:25 | 43.49617 | 7.19183 | 12636 ft | 209 kts | 321° |
| 2026-04-22 07:25 | 43.50804 | 7.18010 | 13178 ft | 211 kts | 321° |
| 2026-04-22 07:26 | 43.51987 | 7.16840 | 13726 ft | 213 kts | 321° |
| 2026-04-22 07:26 | 43.53197 | 7.15643 | 14238 ft | 215 kts | 321° |
| 2026-04-22 07:26 | 43.54418 | 7.14434 | 14744 ft | 216 kts | 321° |
| 2026-04-22 07:26 | 43.55643 | 7.13223 | 15252 ft | 218 kts | 320° |
| 2026-04-22 07:27 | 43.56876 | 7.12003 | 15770 ft | 218 kts | 320° |
| 2026-04-22 07:27 | 43.58110 | 7.10776 | 16294 ft | 219 kts | 320° |
| 2026-04-22 07:27 | 43.59348 | 7.09548 | 16827 ft | 220 kts | 320° |
| 2026-04-22 07:27 | 43.60597 | 7.08308 | 17376 ft | 222 kts | 320° |
| 2026-04-22 07:28 | 43.63110 | 7.05814 | 18487 ft | 222 kts | 319° |
| 2026-04-22 07:28 | 43.64374 | 7.04557 | 18978 ft | 226 kts | 320° |
| 2026-04-22 07:28 | 43.65657 | 7.03281 | 19478 ft | 228 kts | 320° |
| 2026-04-22 07:29 | 43.66942 | 7.02002 | 19983 ft | 229 kts | 320° |
| 2026-04-22 07:29 | 43.68242 | 7.00709 | 20500 ft | 231 kts | 320° |
| 2026-04-22 07:29 | 43.69554 | 6.99401 | 21029 ft | 235 kts | 320° |
| 2026-04-22 07:29 | 43.70875 | 6.98085 | 21562 ft | 233 kts | 320° |
| 2026-04-22 07:30 | 43.72198 | 6.96775 | 22116 ft | 234 kts | 321° |
| 2026-04-22 07:30 | 43.73531 | 6.95439 | 22664 ft | 239 kts | 320° |
| 2026-04-22 07:30 | 43.74878 | 6.94082 | 23228 ft | 241 kts | 321° |
| 2026-04-22 07:30 | 43.76249 | 6.92718 | 23778 ft | 245 kts | 321° |
| 2026-04-22 07:31 | 43.77641 | 6.91331 | 24267 ft | 247 kts | 320° |
| 2026-04-22 07:31 | 43.79033 | 6.89941 | 24760 ft | 246 kts | 320° |
| 2026-04-22 07:31 | 43.80417 | 6.88554 | 25262 ft | 247 kts | 320° |
| 2026-04-22 07:31 | 43.81816 | 6.87152 | 25771 ft | 250 kts | 320° |
| 2026-04-22 07:32 | 43.83225 | 6.85744 | 26315 ft | 250 kts | 321° |
| 2026-04-22 07:32 | 43.84634 | 6.84328 | 26846 ft | 251 kts | 320° |
| 2026-04-22 07:32 | 43.86055 | 6.82904 | 27373 ft | 254 kts | 320° |
| 2026-04-22 07:32 | 43.87472 | 6.81482 | 27920 ft | 255 kts | 320° |
| 2026-04-22 07:33 | 43.88927 | 6.80021 | 28482 ft | 255 kts | 320° |
| 2026-04-22 07:33 | 43.90344 | 6.78597 | 29043 ft | 256 kts | 320° |
| 2026-04-22 07:33 | 43.91782 | 6.77151 | 29628 ft | 254 kts | 319° |
| 2026-04-22 07:33 | 43.93099 | 6.75548 | 30202 ft | 250 kts | 311° |
| 2026-04-22 07:34 | 43.94223 | 6.73713 | 30633 ft | 252 kts | 305° |
| 2026-04-22 07:34 | 43.95160 | 6.71624 | 30902 ft | 259 kts | 298° |
| 2026-04-22 07:34 | 43.95929 | 6.69324 | 31164 ft | 266 kts | 295° |
| 2026-04-22 07:34 | 43.96714 | 6.66971 | 31428 ft | 272 kts | 296° |
| 2026-04-22 07:35 | 43.97520 | 6.64567 | 31684 ft | 277 kts | 296° |
| 2026-04-22 07:35 | 43.98330 | 6.62123 | 31953 ft | 281 kts | 295° |
| 2026-04-22 07:35 | 43.99155 | 6.59631 | 32221 ft | 286 kts | 295° |
| 2026-04-22 07:35 | 43.99992 | 6.57102 | 32497 ft | 291 kts | 295° |
| 2026-04-22 07:36 | 44.00839 | 6.54533 | 32762 ft | 294 kts | 295° |
| 2026-04-22 07:36 | 44.01696 | 6.51942 | 32993 ft | 298 kts | 295° |
| 2026-04-22 07:36 | 44.02569 | 6.49304 | 33213 ft | 303 kts | 295° |
| 2026-04-22 07:36 | 44.03452 | 6.46625 | 33439 ft | 307 kts | 295° |
| 2026-04-22 07:37 | 44.04347 | 6.43907 | 33657 ft | 311 kts | 294° |
| 2026-04-22 07:37 | 44.05253 | 6.41154 | 33909 ft | 315 kts | 295° |
| 2026-04-22 07:37 | 44.06168 | 6.38376 | 34111 ft | 318 kts | 295° |
| 2026-04-22 07:37 | 44.07088 | 6.35572 | 34303 ft | 320 kts | 295° |
| 2026-04-22 07:38 | 44.08017 | 6.32740 | 34500 ft | 323 kts | 295° |
| 2026-04-22 07:38 | 44.08953 | 6.29886 | 34699 ft | 325 kts | 295° |
| 2026-04-22 07:38 | 44.09892 | 6.27019 | 34886 ft | 326 kts | 295° |